Archival Weather

Chicago O'Hare International

Chicago, Illinois (KORD)

Report from: Wednesday, February 16, 2022 5:51 AM CST
Current time: Saturday, February 4, 2023 11:18 PM CST

Current weather
Weather history
Weather forecast

Temperature7.8°C (46.0°F)
Wind chill4.0°C (39.3°F)
Dew point0.0°C (32.0°F)
Winds 14 kts (7.2 m/s, 16.1 mph) South (190°)
Wind gusts 24 kts (12.3 m/s, 27.6 mph)
Visibility10 mi. (16.1 km)
Clouds Few clouds 20,000 ft. (6,096 m)
Ceiling: Overcast 25,000 ft. (7,620 m)
Altimeter29.83 in.Hg (1010 mB)
Relative humidity58 %
Density altitude-666 ft. (-203 m)
Sea-level pressure101.0 kPa (1010 mB, 29.84 in.Hg)
Max temp last 6 hours8.3°C (46.9°F)
Min temp last 6 hours7.2°C (45.0°F)
Remarks Automated weather observing station with precipitation discriminator
Pressure falling more slowly
Flight conditions Visual Meteorological Conditions
Raw dataKORD 161151Z 19014G24KT 10SM FEW200 OVC250 08/00 A2983 RMK AO2 SLP104 T00780000 10083 20072 56015
An unhandled exception has occurred. See browser dev tools for details. Reload 🗙